Weather at Ocean City Municipal Airport

Public forecast

Using degrees Fahrenheit for public forecast. Weather courtesy of forecast.io.

Closest aviation weather report (METAR) to Ocean City Municipal Airport

Report is more than 2 hours old.

Closest report is Atlantic City International Airport, 11.7 nm (21.7 km) N. Retrieved 2021/02/26 03:54 UTC (2 hours ago):

KACY 260354Z 00000KT 10SM CLR 00/M07 A3028 RMK AO2 SLP255 T00001067

Closest aviation forecast (TAF) to Ocean City Municipal Airport

Forecast is more than 6 hours old.

Closest forecast is Atlantic City International Airport, 11.7 nm (21.7 km) N. Retrieved 2021/02/25 18:29 UTC (11 hours ago):

TAF KACY 251725Z 2518/2618 32012G20KT P6SM SKC FM252000 29008KT P6SM SKC FM252300 VRB03KT P6SM FEW250 FM260700 VRB03KT P6SM BKN150 FM261400 04005KT P6SM SCT250 FM261600 11007KT P6SM FEW250